createdAt,value
2022-08-19T00:00:51.145Z,16.43
2022-08-19T00:02:23.195Z,15.50
2022-08-19T00:03:54.904Z,14.83
2022-08-19T00:05:26.754Z,16.53
2022-08-19T00:07:01.494Z,18.30
2022-08-19T00:08:33.411Z,15.63
2022-08-19T00:10:07.804Z,16.80
2022-08-19T00:11:40.185Z,21.10
2022-08-19T00:13:11.879Z,15.20
2022-08-19T00:14:43.627Z,15.27
2022-08-19T00:16:16.053Z,19.83
2022-08-19T00:17:48.444Z,19.20
2022-08-19T00:19:20.169Z,15.73
2022-08-19T00:20:51.873Z,18.13
2022-08-19T00:22:23.568Z,21.57
2022-08-19T00:23:58.932Z,16.70
2022-08-19T00:25:30.853Z,16.80
2022-08-19T00:27:26.087Z,17.77
2022-08-19T00:28:57.652Z,15.50
2022-08-19T00:30:29.516Z,16.93
2022-08-19T00:32:01.456Z,17.47
2022-08-19T00:33:33.673Z,17.10
2022-08-19T00:35:05.892Z,19.23
2022-08-19T00:36:38.452Z,20.53
2022-08-19T00:38:10.185Z,20.80
2022-08-19T00:39:41.901Z,16.47
2022-08-19T00:41:16.128Z,16.07
2022-08-19T00:42:48.159Z,20.33
2022-08-19T00:44:26.848Z,17.00
2022-08-19T00:45:58.992Z,17.10
2022-08-19T00:47:30.756Z,18.30
2022-08-19T00:49:07.409Z,19.70
2022-08-19T00:50:52.107Z,19.00
2022-08-19T00:52:30.983Z,22.30
2022-08-19T00:54:04.266Z,18.43
2022-08-19T00:55:36.032Z,17.97
2022-08-19T00:57:13.606Z,17.87
2022-08-19T00:58:45.601Z,18.73
2022-08-19T01:00:19.890Z,24.33
2022-08-19T01:01:51.859Z,16.80
2022-08-19T01:03:23.841Z,18.27
2022-08-19T01:04:56.457Z,22.80
2022-08-19T01:06:28.385Z,19.37
2022-08-19T01:08:03.933Z,26.70
2022-08-19T01:09:35.701Z,17.93
2022-08-19T01:11:08.980Z,18.90
2022-08-19T01:12:42.235Z,20.70
2022-08-19T01:14:15.399Z,19.20
2022-08-19T01:15:54.813Z,19.43
2022-08-19T01:17:26.703Z,20.57
2022-08-19T01:18:58.477Z,19.17
2022-08-19T01:20:30.214Z,21.03
2022-08-19T01:22:14.590Z,24.50
2022-08-19T01:23:48.754Z,25.40
2022-08-19T01:25:25.070Z,19.30
2022-08-19T01:26:58.786Z,31.33
2022-08-19T01:28:39.765Z,20.97
2022-08-19T01:30:16.828Z,21.27
2022-08-19T01:31:51.271Z,21.20
2022-08-19T01:33:22.974Z,23.83
2022-08-19T01:34:54.674Z,26.77
2022-08-19T01:36:48.260Z,21.53
2022-08-19T01:38:27.482Z,25.97
2022-08-19T01:39:59.290Z,24.30
2022-08-19T01:41:31.230Z,22.17
2022-08-19T01:43:04.415Z,24.57
2022-08-19T01:44:37.187Z,24.80
2022-08-19T01:46:08.999Z,24.40
2022-08-19T01:47:41.211Z,23.33
2022-08-19T01:49:12.926Z,27.90
2022-08-19T01:50:44.657Z,24.80
2022-08-19T01:52:16.370Z,25.80
2022-08-19T01:53:49.398Z,29.20
2022-08-19T01:55:24.727Z,27.17
2022-08-19T01:57:04.455Z,26.00
2022-08-19T01:58:41.859Z,26.40
2022-08-19T02:00:16.808Z,28.30
2022-08-19T02:01:51.737Z,27.80
2022-08-19T02:03:24.004Z,30.27
2022-08-19T02:04:55.732Z,34.33
2022-08-19T02:06:28.594Z,29.63
2022-08-19T02:08:00.381Z,33.87
2022-08-19T02:09:33.152Z,30.60
2022-08-19T02:11:06.260Z,31.23
2022-08-19T02:12:38.224Z,33.90
2022-08-19T02:14:09.944Z,34.73
2022-08-19T02:15:41.900Z,41.33
2022-08-19T02:17:13.645Z,33.40
2022-08-19T02:18:46.459Z,34.23
2022-08-19T02:20:18.498Z,29.83
2022-08-19T02:21:50.236Z,36.77
2022-08-19T02:23:25.151Z,35.60
2022-08-19T02:24:56.836Z,31.20
2022-08-19T02:26:28.989Z,34.47
2022-08-19T02:28:00.662Z,30.30
2022-08-19T02:29:32.765Z,30.73
2022-08-19T02:31:09.939Z,33.97
2022-08-19T02:32:44.731Z,37.80
2022-08-19T02:34:17.562Z,35.30
2022-08-19T02:35:49.246Z,38.23
2022-08-19T02:37:39.495Z,33.77
2022-08-19T02:39:11.428Z,34.13
2022-08-19T02:40:51.427Z,41.10
2022-08-19T02:42:23.331Z,36.70
2022-08-19T02:44:28.524Z,41.33
2022-08-19T02:45:50.711Z,40.63
2022-08-19T02:47:22.462Z,35.63
2022-08-19T02:48:57.950Z,35.67
2022-08-19T02:50:29.920Z,43.37
2022-08-19T02:52:01.669Z,36.43
2022-08-19T02:53:34.000Z,36.97
2022-08-19T02:55:06.528Z,41.57
2022-08-19T02:56:40.425Z,39.33
2022-08-19T02:58:12.464Z,41.67
2022-08-19T02:59:44.137Z,37.40
2022-08-19T03:01:26.458Z,45.00
2022-08-19T03:03:01.392Z,42.80
2022-08-19T03:04:33.417Z,37.00
2022-08-19T03:06:11.381Z,40.00
2022-08-19T03:07:43.137Z,41.50
2022-08-19T03:09:15.701Z,35.30
2022-08-19T03:10:48.744Z,39.23
2022-08-19T03:12:20.476Z,37.83
2022-08-19T03:13:54.264Z,41.87
2022-08-19T03:15:26.068Z,42.00
2022-08-19T03:16:58.428Z,46.53
2022-08-19T03:18:30.116Z,38.97
2022-08-19T03:20:02.171Z,44.57
2022-08-19T03:21:35.299Z,46.53
2022-08-19T03:23:07.279Z,40.87
2022-08-19T03:24:39.636Z,41.27
2022-08-19T03:26:16.367Z,39.67
2022-08-19T03:27:49.808Z,46.43
2022-08-19T03:29:30.419Z,42.20
2022-08-19T03:31:44.190Z,40.10
2022-08-19T03:33:04.252Z,45.13
2022-08-19T03:34:38.569Z,43.93
2022-08-19T03:36:19.712Z,43.17
2022-08-19T03:37:51.830Z,45.87
2022-08-19T03:39:25.120Z,43.20
2022-08-19T03:40:56.792Z,41.40
2022-08-19T03:42:38.169Z,43.53
2022-08-19T03:44:23.050Z,42.47
2022-08-19T03:46:05.876Z,49.90
2022-08-19T03:47:38.683Z,47.50
2022-08-19T03:49:10.473Z,43.00
2022-08-19T03:50:42.243Z,44.73
2022-08-19T03:52:15.070Z,46.27
2022-08-19T03:53:47.855Z,47.57
2022-08-19T03:55:20.084Z,43.67
2022-08-19T03:56:55.644Z,42.67
2022-08-19T03:58:29.532Z,43.17
2022-08-19T04:00:13.031Z,42.47
2022-08-19T04:01:46.577Z,43.70
2022-08-19T04:03:19.635Z,45.37
2022-08-19T04:04:55.843Z,41.73
2022-08-19T04:06:30.916Z,47.50
2022-08-19T04:08:02.801Z,45.43
2022-08-19T04:09:37.439Z,43.60
2022-08-19T04:11:17.833Z,45.20
2022-08-19T04:12:50.030Z,46.97
2022-08-19T04:14:26.759Z,43.17
2022-08-19T04:15:58.493Z,43.43
2022-08-19T04:17:30.277Z,45.07
2022-08-19T04:19:05.313Z,41.80
2022-08-19T04:20:46.036Z,48.50
2022-08-19T04:22:17.821Z,48.93
2022-08-19T04:23:50.141Z,44.43
2022-08-19T04:25:23.584Z,45.17
2022-08-19T04:26:55.417Z,45.50
2022-08-19T04:28:27.183Z,48.60
2022-08-19T04:29:58.909Z,44.80
2022-08-19T04:31:33.265Z,51.43
2022-08-19T04:33:05.366Z,46.43
2022-08-19T04:35:02.195Z,48.33
2022-08-19T04:36:36.422Z,51.60
2022-08-19T04:38:08.781Z,48.10
2022-08-19T04:40:02.226Z,53.13
2022-08-19T04:41:52.992Z,52.90
2022-08-19T04:43:24.715Z,49.83
2022-08-19T04:44:56.841Z,48.40
2022-08-19T04:46:40.653Z,51.33
2022-08-19T04:48:27.881Z,54.47
2022-08-19T04:50:00.287Z,51.10
2022-08-19T04:51:33.939Z,47.20
2022-08-19T04:53:06.085Z,56.13
2022-08-19T04:54:39.348Z,48.20
2022-08-19T04:56:16.577Z,47.33
2022-08-19T04:57:48.454Z,47.27
2022-08-19T04:59:21.069Z,49.43
2022-08-19T05:00:53.846Z,49.53
2022-08-19T05:02:26.076Z,52.10
2022-08-19T05:03:59.996Z,44.60
2022-08-19T05:05:32.484Z,45.10
2022-08-19T05:07:17.230Z,47.03
2022-08-19T05:08:49.700Z,43.87
2022-08-19T05:10:21.473Z,46.03
2022-08-19T05:11:54.316Z,47.00
2022-08-19T05:13:26.285Z,46.57
2022-08-19T05:14:59.144Z,44.67
2022-08-19T05:16:30.916Z,42.47
2022-08-19T05:18:25.559Z,42.37
2022-08-19T05:20:16.064Z,42.20
2022-08-19T05:22:06.656Z,47.63
2022-08-19T05:23:38.550Z,45.80
2022-08-19T05:25:14.202Z,48.13
2022-08-19T05:26:48.575Z,40.93
2022-08-19T05:28:24.359Z,44.90
2022-08-19T05:29:56.162Z,42.10
2022-08-19T05:31:27.962Z,42.90
2022-08-19T05:32:59.655Z,50.83
2022-08-19T05:34:32.051Z,42.43
2022-08-19T05:36:04.268Z,50.47
2022-08-19T05:37:36.143Z,47.30
2022-08-19T05:39:10.651Z,41.77
2022-08-19T05:40:50.308Z,44.73
2022-08-19T05:42:23.695Z,43.43
2022-08-19T05:43:56.879Z,42.10
2022-08-19T05:45:28.839Z,38.70
2022-08-19T05:47:02.986Z,43.10
2022-08-19T05:48:36.191Z,47.67
2022-08-19T05:50:08.332Z,47.53
2022-08-19T05:51:40.355Z,44.73
2022-08-19T05:53:12.956Z,42.07
2022-08-19T05:54:45.923Z,43.60
2022-08-19T05:56:21.205Z,45.90
2022-08-19T05:57:52.886Z,42.17
2022-08-19T05:59:25.068Z,44.80
2022-08-19T06:01:05.220Z,45.50
2022-08-19T06:02:37.203Z,44.57
2022-08-19T06:04:09.248Z,47.03
2022-08-19T06:05:51.543Z,44.43
2022-08-19T06:07:24.131Z,53.30
2022-08-19T06:08:56.203Z,47.43
2022-08-19T06:10:29.305Z,42.70
2022-08-19T06:12:02.131Z,42.20
2022-08-19T06:13:34.144Z,48.60
2022-08-19T06:15:10.448Z,46.57
2022-08-19T06:16:44.319Z,43.10
2022-08-19T06:18:16.427Z,47.03
2022-08-19T06:19:48.188Z,45.33
2022-08-19T06:21:28.152Z,49.63
2022-08-19T06:23:00.435Z,48.83
2022-08-19T06:24:32.656Z,48.57
2022-08-19T06:26:05.053Z,52.13
2022-08-19T06:27:41.988Z,52.33
2022-08-19T06:29:24.685Z,56.93
2022-08-19T06:30:56.436Z,55.03
2022-08-19T06:32:28.132Z,56.63
2022-08-19T06:34:01.876Z,59.53
2022-08-19T06:35:40.399Z,54.80
2022-08-19T06:37:12.661Z,50.60
2022-08-19T06:38:44.424Z,58.13
2022-08-19T06:40:17.685Z,54.40
2022-08-19T06:41:55.458Z,55.40
2022-08-19T06:43:29.192Z,54.40
2022-08-19T06:45:09.261Z,61.53
2022-08-19T06:46:42.910Z,61.23
2022-08-19T06:48:14.615Z,60.60
2022-08-19T06:49:46.380Z,58.70
2022-08-19T06:51:21.665Z,64.60
2022-08-19T06:52:53.617Z,63.47
2022-08-19T06:54:30.900Z,56.97
2022-08-19T06:56:03.485Z,60.63
2022-08-19T06:57:36.686Z,69.93
2022-08-19T06:59:13.652Z,74.70
2022-08-19T07:00:45.544Z,68.03
2022-08-19T07:03:53.929Z,68.30
2022-08-19T07:05:25.979Z,72.87
2022-08-19T07:07:20.898Z,65.80
2022-08-19T07:08:53.274Z,80.27
2022-08-19T07:10:28.056Z,76.03
2022-08-19T07:11:59.802Z,67.63
2022-08-19T07:13:33.478Z,69.00
2022-08-19T07:15:11.964Z,72.13
2022-08-19T07:16:43.652Z,70.33
2022-08-19T07:18:15.437Z,76.23
2022-08-19T07:19:47.148Z,72.87
2022-08-19T07:21:27.374Z,75.30
2022-08-19T07:23:01.335Z,75.50
2022-08-19T07:24:33.766Z,69.77
2022-08-19T07:26:12.814Z,77.60
2022-08-19T07:27:46.439Z,69.70
2022-08-19T07:29:24.100Z,77.27
2022-08-19T07:30:57.498Z,71.50
2022-08-19T07:32:29.245Z,73.10
2022-08-19T07:34:00.928Z,73.40
2022-08-19T07:35:33.077Z,84.80
2022-08-19T07:37:06.657Z,74.47
2022-08-19T07:38:40.596Z,83.17
2022-08-19T07:40:13.337Z,70.43
2022-08-19T07:41:45.868Z,81.80
2022-08-19T07:43:18.437Z,72.70
2022-08-19T07:44:51.868Z,74.90
2022-08-19T07:46:23.586Z,79.07
2022-08-19T07:47:55.674Z,75.70
2022-08-19T07:49:28.445Z,68.80
2022-08-19T07:51:03.981Z,72.10
2022-08-19T07:52:37.089Z,73.80
2022-08-19T07:54:08.833Z,69.40
2022-08-19T07:55:43.896Z,64.97
2022-08-19T07:57:16.311Z,69.43
2022-08-19T07:58:50.573Z,67.20
2022-08-19T08:00:26.161Z,63.47
2022-08-19T08:02:00.483Z,69.77
2022-08-19T08:03:56.771Z,67.13
2022-08-19T08:05:47.146Z,64.53
2022-08-19T08:07:37.629Z,63.70
2022-08-19T08:10:57.026Z,59.20
2022-08-19T08:12:38.158Z,53.77
2022-08-19T08:14:29.466Z,57.40
2022-08-19T08:16:02.993Z,54.10
2022-08-19T08:17:49.570Z,51.40
2022-08-19T08:19:25.852Z,57.00
2022-08-19T08:20:58.702Z,50.33
2022-08-19T08:22:49.794Z,51.63
2022-08-19T08:24:21.646Z,53.43
2022-08-19T08:25:55.885Z,54.87
2022-08-19T08:27:31.991Z,45.90
2022-08-19T08:29:12.243Z,50.17
2022-08-19T08:30:46.560Z,45.37
2022-08-19T08:32:18.432Z,48.27
2022-08-19T08:33:50.416Z,47.27
2022-08-19T08:35:23.931Z,50.10
2022-08-19T08:36:58.305Z,43.03
2022-08-19T08:38:30.355Z,48.90
2022-08-19T08:40:33.151Z,49.37
2022-08-19T08:42:27.083Z,42.20
2022-08-19T08:43:59.163Z,41.17
2022-08-19T08:45:33.590Z,41.73
2022-08-19T08:47:19.259Z,36.77
2022-08-19T08:49:21.258Z,37.50
2022-08-19T08:50:55.639Z,40.33
2022-08-19T08:52:49.449Z,32.00
2022-08-19T08:54:31.639Z,37.17
2022-08-19T08:56:09.384Z,39.63
2022-08-19T08:57:55.444Z,40.90
2022-08-19T08:59:33.282Z,34.83
2022-08-19T09:01:05.225Z,40.13
2022-08-19T09:02:37.328Z,39.40
2022-08-19T09:04:09.244Z,38.80
2022-08-19T09:06:06.142Z,38.70
2022-08-19T09:07:48.951Z,33.17
2022-08-19T09:09:42.720Z,29.50
2022-08-19T09:11:45.055Z,29.67
2022-08-19T09:13:42.773Z,35.23
2022-08-19T09:15:17.044Z,25.77
2022-08-19T09:16:50.387Z,21.10
2022-08-19T09:18:22.071Z,20.57
2022-08-19T09:19:58.674Z,24.23
2022-08-19T09:21:33.371Z,24.67
2022-08-19T09:23:06.172Z,24.20
2022-08-19T09:24:37.864Z,32.17
2022-08-19T09:26:14.357Z,18.07
2022-08-19T09:27:49.983Z,21.87
2022-08-19T09:29:22.550Z,23.47
2022-08-19T09:30:54.447Z,20.20
2022-08-19T09:32:27.378Z,15.90
2022-08-19T09:34:00.228Z,21.80
2022-08-19T09:35:33.711Z,19.13
2022-08-19T09:37:25.431Z,18.30
2022-08-19T09:38:57.343Z,23.10
2022-08-19T09:40:35.453Z,15.47
2022-08-19T09:42:16.692Z,23.37
2022-08-19T09:44:02.576Z,16.33
2022-08-19T09:45:34.384Z,15.57
2022-08-19T09:47:07.812Z,20.63
2022-08-19T09:48:43.346Z,26.03
2022-08-19T09:50:16.370Z,20.40
2022-08-19T09:51:52.509Z,22.30
2022-08-19T09:53:25.385Z,22.23
2022-08-19T09:54:57.533Z,20.97
2022-08-19T09:56:31.024Z,18.53
2022-08-19T09:58:04.427Z,21.30
2022-08-19T09:59:36.389Z,19.60
2022-08-19T10:01:10.537Z,22.53
2022-08-19T10:02:42.373Z,22.30
2022-08-19T10:04:20.593Z,24.20
2022-08-19T10:05:55.240Z,18.17
2022-08-19T10:07:36.015Z,15.63
2022-08-19T10:09:10.739Z,22.57
2022-08-19T10:10:46.670Z,23.40
2022-08-19T10:12:20.164Z,19.00
2022-08-19T10:13:52.124Z,16.23
2022-08-19T10:15:29.077Z,24.23
2022-08-19T10:17:17.544Z,21.67
2022-08-19T10:18:54.163Z,24.93
2022-08-19T10:20:31.069Z,19.30
2022-08-19T10:22:14.551Z,20.10
2022-08-19T10:23:49.385Z,20.07
2022-08-19T10:25:22.369Z,19.10
2022-08-19T10:26:55.775Z,28.70
2022-08-19T10:28:28.692Z,18.50
2022-08-19T10:30:02.240Z,20.33
2022-08-19T10:32:02.666Z,20.10
2022-08-19T10:33:39.309Z,17.70
2022-08-19T10:35:21.794Z,18.50
2022-08-19T10:36:56.195Z,25.17
2022-08-19T10:38:31.870Z,23.60
2022-08-19T10:40:07.793Z,20.30
2022-08-19T10:41:40.555Z,21.50
2022-08-19T10:43:12.336Z,19.07
2022-08-19T10:44:44.282Z,18.90
2022-08-19T10:46:16.940Z,18.00
2022-08-19T10:47:48.883Z,27.10
2022-08-19T10:49:20.706Z,19.70
2022-08-19T10:51:10.987Z,24.97
2022-08-19T10:52:54.422Z,24.37
2022-08-19T10:54:48.500Z,16.20
2022-08-19T10:56:39.502Z,18.67
2022-08-19T10:58:16.287Z,20.90
2022-08-19T10:59:48.782Z,20.20
2022-08-19T11:01:21.266Z,18.17
2022-08-19T11:02:53.466Z,14.10
2022-08-19T11:04:28.942Z,19.33
2022-08-19T11:06:04.028Z,15.37
2022-08-19T11:07:35.921Z,16.00
2022-08-19T11:09:08.306Z,11.30
2022-08-19T11:10:43.614Z,10.43
2022-08-19T11:12:22.429Z,18.90
2022-08-19T11:13:54.632Z,14.30
2022-08-19T11:15:29.487Z,15.20
2022-08-19T11:17:02.885Z,11.10
2022-08-19T11:18:40.239Z,14.13
2022-08-19T11:20:15.860Z,21.17
2022-08-19T11:21:49.426Z,13.00
2022-08-19T11:23:21.462Z,19.80
2022-08-19T11:24:53.146Z,14.13
2022-08-19T11:26:25.243Z,10.40
2022-08-19T11:27:56.960Z,10.57
2022-08-19T11:29:30.038Z,10.87
2022-08-19T11:31:02.242Z,11.63
2022-08-19T11:32:34.670Z,10.03
2022-08-19T11:34:09.041Z,14.68
2022-08-19T11:35:42.053Z,12.23
2022-08-19T11:37:13.897Z,12.27
2022-08-19T11:38:52.427Z,9.43
2022-08-19T11:40:24.186Z,10.40
2022-08-19T11:41:58.148Z,11.03
2022-08-19T11:43:34.293Z,14.20
2022-08-19T11:45:08.928Z,10.60
2022-08-19T11:46:42.182Z,11.93
2022-08-19T11:48:13.899Z,10.20
2022-08-19T11:49:47.091Z,9.97
2022-08-19T11:51:23.436Z,17.57
2022-08-19T11:52:56.562Z,12.23
2022-08-19T11:54:28.288Z,7.03
2022-08-19T11:56:00.031Z,14.17
2022-08-19T11:57:32.395Z,8.13
2022-08-19T11:59:04.252Z,9.37
2022-08-19T12:00:37.460Z,11.60
2022-08-19T12:02:09.188Z,12.70
2022-08-19T12:03:41.529Z,9.80
2022-08-19T12:05:13.417Z,7.57
2022-08-19T12:06:45.316Z,9.33
2022-08-19T12:08:17.889Z,9.73
2022-08-19T12:09:49.646Z,11.50
2022-08-19T12:11:21.572Z,16.13
2022-08-19T12:12:58.717Z,8.80
2022-08-19T12:14:32.806Z,16.10
2022-08-19T12:16:17.444Z,14.27
2022-08-19T12:17:49.237Z,8.90
2022-08-19T12:19:22.384Z,12.67
2022-08-19T12:20:58.036Z,11.87
2022-08-19T12:22:29.886Z,7.17
2022-08-19T12:24:03.039Z,8.70
2022-08-19T12:25:35.396Z,11.27
2022-08-19T12:27:12.562Z,14.63
2022-08-19T12:28:44.881Z,9.53
2022-08-19T12:30:16.798Z,13.50
2022-08-19T12:31:48.528Z,8.93
2022-08-19T12:33:24.869Z,7.30
2022-08-19T12:34:56.624Z,9.97
2022-08-19T12:36:28.321Z,9.47
2022-08-19T12:38:03.857Z,10.07
2022-08-19T12:39:43.002Z,7.40
2022-08-19T12:41:18.600Z,12.23
2022-08-19T12:42:50.800Z,8.97
2022-08-19T12:44:29.288Z,14.80
2022-08-19T12:46:05.186Z,8.97
2022-08-19T12:47:38.032Z,8.10
2022-08-19T12:49:17.490Z,9.63
2022-08-19T12:51:13.125Z,7.50
2022-08-19T12:52:44.866Z,8.83
2022-08-19T12:54:16.620Z,7.87
2022-08-19T12:55:48.327Z,11.03
2022-08-19T12:57:19.997Z,9.40
2022-08-19T12:58:53.154Z,8.70
2022-08-19T13:00:25.352Z,9.33
2022-08-19T13:01:57.177Z,9.23
2022-08-19T13:03:30.453Z,15.17
2022-08-19T13:05:02.133Z,12.30
2022-08-19T13:06:38.154Z,11.73
2022-08-19T13:08:09.854Z,16.70
2022-08-19T13:09:45.554Z,8.97
2022-08-19T13:11:19.593Z,11.27
2022-08-19T13:12:54.122Z,6.80
2022-08-19T13:14:27.061Z,10.80
2022-08-19T13:16:06.742Z,10.97
2022-08-19T13:17:39.830Z,16.20
2022-08-19T13:19:12.957Z,12.63
2022-08-19T13:20:46.772Z,11.50
2022-08-19T13:22:25.870Z,14.70
2022-08-19T13:23:57.846Z,9.33
2022-08-19T13:25:29.589Z,5.73
2022-08-19T13:27:02.130Z,8.23
2022-08-19T13:28:53.777Z,10.27
2022-08-19T13:30:44.293Z,8.83
2022-08-19T13:32:34.794Z,5.80
2022-08-19T13:34:08.225Z,6.10
2022-08-19T13:35:51.110Z,7.37
2022-08-19T13:37:41.888Z,8.07
2022-08-19T13:39:13.691Z,8.37
2022-08-19T13:40:46.018Z,6.00
2022-08-19T13:42:19.609Z,8.50
2022-08-19T13:43:51.798Z,5.33
2022-08-19T13:45:25.954Z,7.63
2022-08-19T13:52:30.037Z,11.90
2022-08-19T13:54:01.828Z,12.33
2022-08-19T13:55:33.881Z,4.80
2022-08-19T13:57:05.757Z,14.43
2022-08-19T13:58:38.439Z,7.80
2022-08-19T14:00:18.617Z,6.57
2022-08-19T14:01:50.826Z,9.73
2022-08-19T14:03:22.638Z,7.13
2022-08-19T14:04:54.882Z,6.13
2022-08-19T14:06:26.777Z,8.10
2022-08-19T14:07:59.933Z,6.53
2022-08-19T14:09:32.305Z,5.67
2022-08-19T14:11:06.281Z,8.50
2022-08-19T14:12:39.065Z,8.13
2022-08-19T14:14:15.829Z,8.23
2022-08-19T14:15:48.315Z,6.43
2022-08-19T14:17:20.023Z,6.40
2022-08-19T14:18:52.451Z,7.83
2022-08-19T14:20:26.384Z,7.20
2022-08-19T14:21:58.841Z,10.90
2022-08-19T14:23:32.720Z,9.83
2022-08-19T14:25:06.000Z,19.87
2022-08-19T14:26:37.955Z,8.83
2022-08-19T14:28:10.290Z,11.60
2022-08-19T14:29:42.008Z,9.73
2022-08-19T14:31:19.284Z,13.83
2022-08-19T14:32:51.037Z,11.70
2022-08-19T14:34:23.078Z,11.63
2022-08-19T14:35:54.799Z,11.10
2022-08-19T14:37:31.902Z,10.47
2022-08-19T14:39:10.444Z,11.47
2022-08-19T14:40:42.952Z,8.30
2022-08-19T14:42:15.710Z,12.93
2022-08-19T14:43:50.635Z,17.27
2022-08-19T14:45:22.491Z,14.13
2022-08-19T14:46:54.556Z,18.73
2022-08-19T14:48:29.139Z,14.43
2022-08-19T14:50:00.952Z,12.50
2022-08-19T14:51:36.831Z,14.07
2022-08-19T14:53:12.275Z,9.23
2022-08-19T14:54:45.201Z,20.20
2022-08-19T14:56:20.748Z,15.80
2022-08-19T14:57:52.506Z,11.80
2022-08-19T14:59:24.788Z,10.57
2022-08-19T15:00:56.935Z,11.50
2022-08-19T15:02:34.725Z,10.20
2022-08-19T15:04:07.280Z,8.30
2022-08-19T15:05:38.989Z,12.80
2022-08-19T15:07:10.822Z,20.80
2022-08-19T15:08:44.781Z,19.13
2022-08-19T15:10:17.284Z,19.93
2022-08-19T15:11:49.789Z,15.47
2022-08-19T15:13:22.124Z,13.97
2022-08-19T15:14:55.986Z,16.57
2022-08-19T15:16:28.661Z,17.80
2022-08-19T15:18:03.349Z,12.60
2022-08-19T15:19:36.789Z,25.50
2022-08-19T15:21:08.488Z,15.80
2022-08-19T15:22:40.827Z,14.80
2022-08-19T15:24:12.562Z,20.90
2022-08-19T15:25:44.565Z,24.87
2022-08-19T15:27:16.247Z,35.97
2022-08-19T15:28:48.000Z,35.77
2022-08-19T15:30:26.459Z,44.23
2022-08-19T15:31:59.264Z,54.45
2022-08-19T15:33:37.325Z,43.13
2022-08-19T15:35:09.106Z,49.43
2022-08-19T15:36:41.134Z,26.13
2022-08-19T15:38:16.730Z,23.47
2022-08-19T15:39:48.524Z,18.37
2022-08-19T15:41:30.458Z,15.97
2022-08-19T15:43:02.497Z,12.10
2022-08-19T15:44:34.878Z,9.03
2022-08-19T15:46:06.999Z,9.37
2022-08-19T15:47:39.802Z,21.67
2022-08-19T15:49:13.823Z,7.77
2022-08-19T15:50:48.234Z,16.37
2022-08-19T15:52:21.586Z,8.50
2022-08-19T15:53:53.691Z,16.90
2022-08-19T15:55:35.077Z,14.77
2022-08-19T15:57:21.831Z,11.93
2022-08-19T15:59:11.873Z,11.53
2022-08-19T16:01:02.169Z,20.20
2022-08-19T16:02:53.652Z,18.17
2022-08-19T16:04:44.161Z,16.70
2022-08-19T16:06:27.927Z,24.33
2022-08-19T16:08:00.127Z,25.60
2022-08-19T16:09:32.671Z,30.13
2022-08-19T16:11:04.763Z,26.60
2022-08-19T16:12:36.631Z,26.43
2022-08-19T16:14:09.397Z,17.47
2022-08-19T16:15:42.970Z,15.67
2022-08-19T16:17:14.783Z,11.80
2022-08-19T16:18:47.144Z,8.97
2022-08-19T16:20:21.891Z,7.93
2022-08-19T16:21:57.016Z,9.07
2022-08-19T16:23:28.989Z,5.63
2022-08-19T16:25:00.905Z,12.20
2022-08-19T16:26:34.751Z,24.20
2022-08-19T16:28:08.627Z,11.60
2022-08-19T16:29:40.588Z,9.57
2022-08-19T16:31:14.141Z,15.40
2022-08-19T16:32:46.011Z,14.57
2022-08-19T16:34:17.755Z,7.40
2022-08-19T16:35:56.071Z,12.27
2022-08-19T16:37:33.867Z,23.20
2022-08-19T16:39:05.642Z,17.83
2022-08-19T16:40:37.372Z,14.33
2022-08-19T16:42:10.484Z,12.17
2022-08-19T16:43:42.551Z,11.57
2022-08-19T16:45:14.331Z,7.20
2022-08-19T16:46:47.223Z,12.70
2022-08-19T16:48:30.795Z,12.53
2022-08-19T16:50:02.972Z,9.53
2022-08-19T16:51:34.766Z,6.33
2022-08-19T16:53:09.703Z,6.03
2022-08-19T16:54:41.771Z,6.10
2022-08-19T16:56:15.850Z,7.90
2022-08-19T16:57:47.702Z,6.37
2022-08-19T16:59:19.520Z,8.67
2022-08-19T17:00:52.750Z,3.90
2022-08-19T17:02:29.561Z,6.50
2022-08-19T17:04:02.414Z,7.33
2022-08-19T17:05:34.113Z,6.57
2022-08-19T17:07:06.202Z,6.33
2022-08-19T17:08:37.918Z,4.47
2022-08-19T17:10:09.967Z,7.17
2022-08-19T17:11:41.788Z,5.33
2022-08-19T17:13:16.547Z,9.47
2022-08-19T17:14:48.992Z,7.83
2022-08-19T17:16:24.848Z,5.60
2022-08-19T17:18:00.422Z,5.03
2022-08-19T17:19:32.113Z,4.67
2022-08-19T17:21:04.395Z,4.40
2022-08-19T17:22:37.066Z,6.20
2022-08-19T17:24:09.086Z,5.17
2022-08-19T17:25:41.023Z,7.37
2022-08-19T17:27:12.831Z,5.93
2022-08-19T17:28:45.728Z,4.30
2022-08-19T17:30:18.442Z,5.40
2022-08-19T17:31:50.164Z,4.77
2022-08-19T17:33:21.979Z,6.73
2022-08-19T17:34:56.536Z,5.90
2022-08-19T17:36:30.451Z,5.60
2022-08-19T17:38:07.922Z,4.70
2022-08-19T17:39:41.612Z,4.53
2022-08-19T17:41:14.083Z,6.37
2022-08-19T17:42:46.024Z,5.03
2022-08-19T17:44:18.749Z,4.83
2022-08-19T17:45:50.501Z,4.13
2022-08-19T17:47:22.235Z,5.77
2022-08-19T17:48:57.147Z,7.63
2022-08-19T17:50:30.756Z,4.13
2022-08-19T17:52:03.859Z,4.60
2022-08-19T17:53:37.878Z,5.90
2022-08-19T17:55:10.319Z,4.83
2022-08-19T17:56:43.006Z,5.40
2022-08-19T17:58:14.847Z,4.70
2022-08-19T17:59:48.487Z,5.00
2022-08-19T18:01:20.358Z,6.80
2022-08-19T18:02:58.065Z,4.50
2022-08-19T18:04:29.858Z,5.50
2022-08-19T18:06:01.576Z,5.40
2022-08-19T18:07:34.292Z,5.20
2022-08-19T18:09:08.070Z,6.80
2022-08-19T18:10:40.153Z,6.80
2022-08-19T18:12:13.089Z,4.90
2022-08-19T18:13:45.086Z,5.17
2022-08-19T18:15:17.991Z,5.47
2022-08-19T18:16:50.412Z,6.90
2022-08-19T18:18:22.935Z,9.57
2022-08-19T18:19:54.711Z,7.80
2022-08-19T18:21:31.517Z,8.13
2022-08-19T18:23:44.598Z,9.67
2022-08-19T18:24:57.395Z,16.97
2022-08-19T18:26:30.084Z,16.67
2022-08-19T18:28:02.000Z,12.97
2022-08-19T18:29:34.061Z,9.80
2022-08-19T18:31:07.457Z,10.50
2022-08-19T18:32:42.091Z,7.67
2022-08-19T18:34:15.091Z,6.13
2022-08-19T18:35:49.016Z,5.70
2022-08-19T18:37:20.913Z,10.40
2022-08-19T18:39:11.073Z,10.50
2022-08-19T18:41:02.517Z,19.03
2022-08-19T18:42:53.138Z,12.87
2022-08-19T18:44:43.460Z,12.60
2022-08-19T18:46:36.826Z,9.50
2022-08-19T18:48:28.257Z,7.53
2022-08-19T18:50:07.373Z,8.00
2022-08-19T18:51:39.157Z,8.30
2022-08-19T18:53:10.992Z,6.57
2022-08-19T18:54:44.125Z,7.57
2022-08-19T18:56:18.372Z,6.53
2022-08-19T18:57:51.355Z,6.60
2022-08-19T18:59:28.738Z,6.43
2022-08-19T19:01:29.580Z,6.20
2022-08-19T19:03:01.956Z,19.17
2022-08-19T19:04:37.412Z,12.80
2022-08-19T19:06:09.341Z,11.83
2022-08-19T19:07:41.915Z,8.00
2022-08-19T19:09:17.542Z,8.60
2022-08-19T19:10:50.384Z,7.00
2022-08-19T19:12:28.870Z,8.20
2022-08-19T19:14:02.452Z,8.00
2022-08-19T19:15:34.865Z,7.67
2022-08-19T19:17:11.119Z,6.23
2022-08-19T19:18:42.796Z,8.57
2022-08-19T19:20:14.617Z,10.00
2022-08-19T19:21:49.354Z,6.40
2022-08-19T19:23:21.318Z,6.97
2022-08-19T19:24:57.307Z,6.70
2022-08-19T19:26:29.123Z,7.50
2022-08-19T19:28:01.159Z,6.97
2022-08-19T19:29:36.516Z,5.43
2022-08-19T19:31:08.432Z,5.10
2022-08-19T19:32:40.891Z,9.60
2022-08-19T19:34:15.486Z,5.53
2022-08-19T19:36:02.066Z,5.70
2022-08-19T19:37:33.904Z,5.47
2022-08-19T19:39:06.615Z,4.33
2022-08-19T19:40:38.303Z,4.73
2022-08-19T19:42:12.391Z,5.10
2022-08-19T19:43:44.410Z,4.40
2022-08-19T19:45:16.861Z,5.87
2022-08-19T19:46:48.742Z,5.80
2022-08-19T19:48:20.504Z,7.00
2022-08-19T19:50:13.230Z,7.37
2022-08-19T19:51:44.598Z,4.73
2022-08-19T19:53:17.349Z,9.43
2022-08-19T19:54:49.237Z,12.40
2022-08-19T19:56:22.384Z,6.60
2022-08-19T19:57:57.549Z,5.63
2022-08-19T19:59:29.369Z,10.30
2022-08-19T20:01:03.855Z,9.50
2022-08-19T20:02:46.649Z,7.87
2022-08-19T20:04:21.400Z,8.90
2022-08-19T20:05:53.150Z,6.50
2022-08-19T20:07:48.146Z,7.10
2022-08-19T20:09:20.101Z,7.97
2022-08-19T20:10:51.784Z,12.70
2022-08-19T20:12:23.541Z,7.37
2022-08-19T20:13:55.256Z,9.20
2022-08-19T20:15:27.286Z,12.20
2022-08-19T20:17:00.230Z,9.83
2022-08-19T20:18:31.958Z,9.73
2022-08-19T20:20:04.126Z,9.93
2022-08-19T20:21:36.264Z,9.63
2022-08-19T20:23:08.496Z,10.20
2022-08-19T20:24:42.252Z,8.70
2022-08-19T20:26:32.343Z,9.43
2022-08-19T20:28:05.701Z,10.23
2022-08-19T20:29:41.731Z,9.20
2022-08-19T20:31:17.554Z,8.70
2022-08-19T20:32:50.021Z,9.63
2022-08-19T20:34:22.015Z,6.90
2022-08-19T20:35:53.774Z,8.70
2022-08-19T20:37:26.002Z,9.03
2022-08-19T20:38:59.393Z,6.57
2022-08-19T20:40:32.213Z,6.90
2022-08-19T20:42:04.124Z,5.87
2022-08-19T20:43:36.030Z,6.10
2022-08-19T20:45:32.334Z,7.17